sensor_id;sensor_type;location;lat;lon;timestamp;P1;durP1;ratioP1;P2;durP2;ratioP2
10896;SDS011;5501;51.176;6.470;2024-01-16T00:00:44;4.45;;;3.90;;
10896;SDS011;5501;51.176;6.470;2024-01-16T00:05:46;6.13;;;4.15;;
10896;SDS011;5501;51.176;6.470;2024-01-16T00:10:47;12.05;;;5.50;;
10896;SDS011;5501;51.176;6.470;2024-01-16T00:15:49;12.50;;;5.22;;
10896;SDS011;5501;51.176;6.470;2024-01-16T00:20:50;9.10;;;5.45;;
10896;SDS011;5501;51.176;6.470;2024-01-16T00:25:52;10.48;;;6.60;;
10896;SDS011;5501;51.176;6.470;2024-01-16T00:30:54;16.48;;;7.05;;
10896;SDS011;5501;51.176;6.470;2024-01-16T00:35:55;10.10;;;6.05;;
10896;SDS011;5501;51.176;6.470;2024-01-16T00:40:57;11.68;;;6.70;;
10896;SDS011;5501;51.176;6.470;2024-01-16T00:45:58;7.57;;;5.63;;
10896;SDS011;5501;51.176;6.470;2024-01-16T00:51:02;17.27;;;6.88;;
10896;SDS011;5501;51.176;6.470;2024-01-16T00:56:04;11.15;;;6.38;;
10896;SDS011;5501;51.176;6.470;2024-01-16T01:01:05;12.55;;;5.63;;
10896;SDS011;5501;51.176;6.470;2024-01-16T01:06:07;11.35;;;5.72;;
10896;SDS011;5501;51.176;6.470;2024-01-16T01:11:09;7.80;;;4.45;;
10896;SDS011;5501;51.176;6.470;2024-01-16T01:16:12;11.18;;;4.25;;
10896;SDS011;5501;51.176;6.470;2024-01-16T01:21:13;5.85;;;4.43;;
10896;SDS011;5501;51.176;6.470;2024-01-16T01:26:15;8.75;;;4.60;;
10896;SDS011;5501;51.176;6.470;2024-01-16T01:31:19;5.50;;;4.63;;
10896;SDS011;5501;51.176;6.470;2024-01-16T01:36:20;9.52;;;4.78;;
10896;SDS011;5501;51.176;6.470;2024-01-16T01:41:22;16.75;;;7.05;;
10896;SDS011;5501;51.176;6.470;2024-01-16T01:46:24;8.55;;;5.80;;
10896;SDS011;5501;51.176;6.470;2024-01-16T01:51:25;8.68;;;4.90;;
10896;SDS011;5501;51.176;6.470;2024-01-16T01:56:27;15.30;;;6.15;;
10896;SDS011;5501;51.176;6.470;2024-01-16T02:01:29;7.45;;;5.35;;
10896;SDS011;5501;51.176;6.470;2024-01-16T02:06:33;9.70;;;5.20;;
10896;SDS011;5501;51.176;6.470;2024-01-16T02:11:34;8.25;;;4.60;;
10896;SDS011;5501;51.176;6.470;2024-01-16T02:16:37;11.55;;;5.68;;
10896;SDS011;5501;51.176;6.470;2024-01-16T02:21:59;10.02;;;6.47;;
10896;SDS011;5501;51.176;6.470;2024-01-16T02:27:03;11.68;;;5.55;;
10896;SDS011;5501;51.176;6.470;2024-01-16T02:32:05;9.77;;;6.03;;
10896;SDS011;5501;51.176;6.470;2024-01-16T02:37:07;9.65;;;5.30;;
10896;SDS011;5501;51.176;6.470;2024-01-16T02:42:08;8.60;;;4.22;;
10896;SDS011;5501;51.176;6.470;2024-01-16T02:47:10;8.25;;;5.40;;
10896;SDS011;5501;51.176;6.470;2024-01-16T02:52:11;20.13;;;3.90;;
10896;SDS011;5501;51.176;6.470;2024-01-16T02:57:13;13.48;;;4.60;;
10896;SDS011;5501;51.176;6.470;2024-01-16T03:02:15;13.23;;;4.50;;
10896;SDS011;5501;51.176;6.470;2024-01-16T03:07:16;3.42;;;3.08;;
10896;SDS011;5501;51.176;6.470;2024-01-16T03:12:18;9.18;;;4.95;;
10896;SDS011;5501;51.176;6.470;2024-01-16T03:17:19;5.72;;;3.63;;
10896;SDS011;5501;51.176;6.470;2024-01-16T03:22:22;6.43;;;3.97;;
10896;SDS011;5501;51.176;6.470;2024-01-16T03:27:24;4.72;;;3.45;;
10896;SDS011;5501;51.176;6.470;2024-01-16T03:32:25;9.55;;;4.95;;
10896;SDS011;5501;51.176;6.470;2024-01-16T03:37:27;12.38;;;4.40;;
10896;SDS011;5501;51.176;6.470;2024-01-16T03:42:28;11.02;;;4.07;;
10896;SDS011;5501;51.176;6.470;2024-01-16T03:47:30;5.72;;;4.00;;
10896;SDS011;5501;51.176;6.470;2024-01-16T03:52:32;11.80;;;3.72;;
10896;SDS011;5501;51.176;6.470;2024-01-16T03:57:33;3.40;;;3.10;;
10896;SDS011;5501;51.176;6.470;2024-01-16T04:02:36;10.38;;;4.32;;
10896;SDS011;5501;51.176;6.470;2024-01-16T04:07:39;4.32;;;3.33;;
10896;SDS011;5501;51.176;6.470;2024-01-16T04:12:40;30.42;;;4.63;;
10896;SDS011;5501;51.176;6.470;2024-01-16T04:17:42;6.03;;;3.72;;
10896;SDS011;5501;51.176;6.470;2024-01-16T04:22:43;8.35;;;3.83;;
10896;SDS011;5501;51.176;6.470;2024-01-16T04:27:46;5.28;;;4.00;;
10896;SDS011;5501;51.176;6.470;2024-01-16T04:32:48;9.10;;;4.15;;
10896;SDS011;5501;51.176;6.470;2024-01-16T04:37:49;14.00;;;4.60;;
10896;SDS011;5501;51.176;6.470;2024-01-16T04:42:53;9.60;;;4.78;;
10896;SDS011;5501;51.176;6.470;2024-01-16T04:47:55;6.38;;;4.13;;
10896;SDS011;5501;51.176;6.470;2024-01-16T04:53:00;20.70;;;4.60;;
10896;SDS011;5501;51.176;6.470;2024-01-16T04:58:02;8.98;;;3.42;;
10896;SDS011;5501;51.176;6.470;2024-01-16T05:03:04;5.90;;;3.63;;
10896;SDS011;5501;51.176;6.470;2024-01-16T05:08:06;4.90;;;2.88;;
10896;SDS011;5501;51.176;6.470;2024-01-16T05:13:08;16.55;;;4.57;;
10896;SDS011;5501;51.176;6.470;2024-01-16T05:18:10;8.18;;;3.30;;
10896;SDS011;5501;51.176;6.470;2024-01-16T05:23:11;6.13;;;3.47;;
10896;SDS011;5501;51.176;6.470;2024-01-16T05:28:13;8.38;;;3.67;;
10896;SDS011;5501;51.176;6.470;2024-01-16T05:33:15;5.82;;;2.45;;
10896;SDS011;5501;51.176;6.470;2024-01-16T05:38:17;6.82;;;3.45;;
10896;SDS011;5501;51.176;6.470;2024-01-16T05:43:19;7.57;;;4.38;;
10896;SDS011;5501;51.176;6.470;2024-01-16T05:48:20;4.50;;;3.67;;
10896;SDS011;5501;51.176;6.470;2024-01-16T05:53:22;11.88;;;3.40;;
10896;SDS011;5501;51.176;6.470;2024-01-16T05:58:24;7.30;;;3.20;;
10896;SDS011;5501;51.176;6.470;2024-01-16T06:03:25;2.75;;;1.98;;
10896;SDS011;5501;51.176;6.470;2024-01-16T06:08:26;3.05;;;2.22;;
10896;SDS011;5501;51.176;6.470;2024-01-16T06:13:28;3.78;;;3.22;;
10896;SDS011;5501;51.176;6.470;2024-01-16T06:18:31;6.82;;;2.25;;
10896;SDS011;5501;51.176;6.470;2024-01-16T06:23:33;2.67;;;2.22;;
10896;SDS011;5501;51.176;6.470;2024-01-16T06:28:34;5.57;;;2.13;;
10896;SDS011;5501;51.176;6.470;2024-01-16T06:33:36;8.20;;;3.08;;
10896;SDS011;5501;51.176;6.470;2024-01-16T06:38:38;2.70;;;1.75;;
10896;SDS011;5501;51.176;6.470;2024-01-16T06:43:42;10.73;;;2.30;;
10896;SDS011;5501;51.176;6.470;2024-01-16T06:48:44;4.18;;;1.92;;
10896;SDS011;5501;51.176;6.470;2024-01-16T06:53:48;7.38;;;2.53;;
10896;SDS011;5501;51.176;6.470;2024-01-16T06:58:50;5.22;;;2.10;;
10896;SDS011;5501;51.176;6.470;2024-01-16T07:03:51;8.50;;;2.22;;
10896;SDS011;5501;51.176;6.470;2024-01-16T07:08:53;3.58;;;2.40;;
10896;SDS011;5501;51.176;6.470;2024-01-16T07:13:55;2.97;;;1.92;;
10896;SDS011;5501;51.176;6.470;2024-01-16T07:18:56;2.08;;;1.40;;
10896;SDS011;5501;51.176;6.470;2024-01-16T07:23:59;3.10;;;2.15;;
10896;SDS011;5501;51.176;6.470;2024-01-16T07:29:01;8.20;;;2.60;;
10896;SDS011;5501;51.176;6.470;2024-01-16T07:34:02;6.78;;;2.35;;
10896;SDS011;5501;51.176;6.470;2024-01-16T07:39:04;6.30;;;2.65;;
10896;SDS011;5501;51.176;6.470;2024-01-16T07:44:05;6.72;;;2.78;;
10896;SDS011;5501;51.176;6.470;2024-01-16T07:49:07;12.38;;;3.38;;
10896;SDS011;5501;51.176;6.470;2024-01-16T07:54:11;4.68;;;2.22;;
10896;SDS011;5501;51.176;6.470;2024-01-16T07:59:14;8.30;;;2.20;;
10896;SDS011;5501;51.176;6.470;2024-01-16T08:04:16;9.50;;;2.45;;
10896;SDS011;5501;51.176;6.470;2024-01-16T08:09:17;3.97;;;2.30;;
10896;SDS011;5501;51.176;6.470;2024-01-16T08:14:19;3.05;;;1.92;;
10896;SDS011;5501;51.176;6.470;2024-01-16T08:19:20;3.88;;;3.53;;
10896;SDS011;5501;51.176;6.470;2024-01-16T08:24:22;22.05;;;3.28;;
10896;SDS011;5501;51.176;6.470;2024-01-16T08:29:24;3.80;;;2.50;;
10896;SDS011;5501;51.176;6.470;2024-01-16T08:34:25;3.35;;;2.15;;
10896;SDS011;5501;51.176;6.470;2024-01-16T08:39:27;6.88;;;2.60;;
10896;SDS011;5501;51.176;6.470;2024-01-16T08:44:30;12.60;;;4.03;;
10896;SDS011;5501;51.176;6.470;2024-01-16T08:49:32;5.88;;;2.90;;
10896;SDS011;5501;51.176;6.470;2024-01-16T08:54:34;3.25;;;2.33;;
10896;SDS011;5501;51.176;6.470;2024-01-16T08:59:36;3.80;;;2.08;;
10896;SDS011;5501;51.176;6.470;2024-01-16T09:04:37;4.35;;;1.95;;
10896;SDS011;5501;51.176;6.470;2024-01-16T09:09:39;7.93;;;2.17;;
10896;SDS011;5501;51.176;6.470;2024-01-16T09:14:43;5.18;;;1.98;;
10896;SDS011;5501;51.176;6.470;2024-01-16T09:19:44;5.63;;;2.03;;
10896;SDS011;5501;51.176;6.470;2024-01-16T09:24:46;9.35;;;2.05;;
10896;SDS011;5501;51.176;6.470;2024-01-16T09:29:47;5.78;;;2.42;;
10896;SDS011;5501;51.176;6.470;2024-01-16T09:34:50;3.90;;;2.63;;
10896;SDS011;5501;51.176;6.470;2024-01-16T09:39:52;6.03;;;2.08;;
10896;SDS011;5501;51.176;6.470;2024-01-16T09:44:55;10.52;;;2.25;;
10896;SDS011;5501;51.176;6.470;2024-01-16T09:50:01;5.68;;;2.80;;
10896;SDS011;5501;51.176;6.470;2024-01-16T09:55:04;9.57;;;2.58;;
10896;SDS011;5501;51.176;6.470;2024-01-16T10:00:10;5.53;;;2.45;;
10896;SDS011;5501;51.176;6.470;2024-01-16T10:05:13;4.30;;;2.20;;
10896;SDS011;5501;51.176;6.470;2024-01-16T10:10:15;10.88;;;3.45;;
10896;SDS011;5501;51.176;6.470;2024-01-16T10:15:27;8.82;;;3.10;;
10896;SDS011;5501;51.176;6.470;2024-01-16T10:20:32;7.15;;;3.05;;
10896;SDS011;5501;51.176;6.470;2024-01-16T10:25:35;7.05;;;2.33;;
10896;SDS011;5501;51.176;6.470;2024-01-16T10:30:39;3.83;;;1.70;;
10896;SDS011;5501;51.176;6.470;2024-01-16T10:35:41;5.80;;;2.60;;
10896;SDS011;5501;51.176;6.470;2024-01-16T10:40:42;2.80;;;2.15;;
10896;SDS011;5501;51.176;6.470;2024-01-16T10:45:44;8.88;;;2.42;;
10896;SDS011;5501;51.176;6.470;2024-01-16T10:50:48;7.07;;;3.58;;
10896;SDS011;5501;51.176;6.470;2024-01-16T10:55:52;14.43;;;3.20;;
10896;SDS011;5501;51.176;6.470;2024-01-16T11:01:01;6.70;;;2.63;;
10896;SDS011;5501;51.176;6.470;2024-01-16T11:06:06;11.97;;;3.27;;
10896;SDS011;5501;51.176;6.470;2024-01-16T11:11:11;6.95;;;2.72;;
10896;SDS011;5501;51.176;6.470;2024-01-16T11:16:14;8.07;;;2.50;;
10896;SDS011;5501;51.176;6.470;2024-01-16T11:21:17;7.80;;;2.50;;
10896;SDS011;5501;51.176;6.470;2024-01-16T11:26:27;2.55;;;1.73;;
10896;SDS011;5501;51.176;6.470;2024-01-16T11:36:51;6.88;;;3.90;;
10896;SDS011;5501;51.176;6.470;2024-01-16T11:41:58;4.78;;;2.25;;
10896;SDS011;5501;51.176;6.470;2024-01-16T11:47:00;3.95;;;2.20;;
10896;SDS011;5501;51.176;6.470;2024-01-16T11:52:04;3.30;;;1.88;;
10896;SDS011;5501;51.176;6.470;2024-01-16T12:02:29;7.60;;;1.90;;
10896;SDS011;5501;51.176;6.470;2024-01-16T12:07:44;4.28;;;2.42;;
10896;SDS011;5501;51.176;6.470;2024-01-16T12:12:48;2.97;;;2.00;;
10896;SDS011;5501;51.176;6.470;2024-01-16T12:17:51;2.58;;;2.10;;
10896;SDS011;5501;51.176;6.470;2024-01-16T12:22:56;4.43;;;1.92;;
10896;SDS011;5501;51.176;6.470;2024-01-16T12:28:05;3.35;;;2.00;;
10896;SDS011;5501;51.176;6.470;2024-01-16T12:33:12;5.45;;;2.75;;
10896;SDS011;5501;51.176;6.470;2024-01-16T12:38:14;3.55;;;2.40;;
10896;SDS011;5501;51.176;6.470;2024-01-16T12:43:17;4.88;;;1.77;;
10896;SDS011;5501;51.176;6.470;2024-01-16T12:48:23;9.13;;;3.15;;
10896;SDS011;5501;51.176;6.470;2024-01-16T12:53:27;4.30;;;1.98;;
10896;SDS011;5501;51.176;6.470;2024-01-16T12:58:35;10.05;;;3.10;;
10896;SDS011;5501;51.176;6.470;2024-01-16T13:03:37;3.80;;;2.10;;
10896;SDS011;5501;51.176;6.470;2024-01-16T13:08:40;2.80;;;1.70;;
10896;SDS011;5501;51.176;6.470;2024-01-16T13:13:42;6.30;;;2.05;;
10896;SDS011;5501;51.176;6.470;2024-01-16T13:18:43;6.07;;;2.05;;
10896;SDS011;5501;51.176;6.470;2024-01-16T13:23:45;3.13;;;2.65;;
10896;SDS011;5501;51.176;6.470;2024-01-16T13:28:47;2.33;;;2.13;;
10896;SDS011;5501;51.176;6.470;2024-01-16T13:33:49;7.07;;;2.67;;
10896;SDS011;5501;51.176;6.470;2024-01-16T13:38:51;8.18;;;3.10;;
10896;SDS011;5501;51.176;6.470;2024-01-16T13:43:53;2.50;;;1.73;;
10896;SDS011;5501;51.176;6.470;2024-01-16T13:48:55;6.70;;;2.35;;
10896;SDS011;5501;51.176;6.470;2024-01-16T13:53:57;8.07;;;2.15;;
10896;SDS011;5501;51.176;6.470;2024-01-16T13:58:58;2.70;;;2.08;;
10896;SDS011;5501;51.176;6.470;2024-01-16T14:04:01;3.30;;;2.50;;
10896;SDS011;5501;51.176;6.470;2024-01-16T14:09:02;2.65;;;1.70;;
10896;SDS011;5501;51.176;6.470;2024-01-16T14:14:04;2.42;;;1.50;;
10896;SDS011;5501;51.176;6.470;2024-01-16T14:19:06;3.22;;;1.88;;
10896;SDS011;5501;51.176;6.470;2024-01-16T14:24:08;4.78;;;1.40;;
10896;SDS011;5501;51.176;6.470;2024-01-16T14:29:11;2.28;;;2.03;;
10896;SDS011;5501;51.176;6.470;2024-01-16T14:34:12;6.82;;;1.85;;
10896;SDS011;5501;51.176;6.470;2024-01-16T14:39:14;5.97;;;1.60;;
10896;SDS011;5501;51.176;6.470;2024-01-16T14:44:24;4.18;;;2.15;;
10896;SDS011;5501;51.176;6.470;2024-01-16T14:49:25;7.70;;;2.22;;
10896;SDS011;5501;51.176;6.470;2024-01-16T14:54:32;5.18;;;2.33;;
10896;SDS011;5501;51.176;6.470;2024-01-16T14:59:34;3.45;;;1.90;;
10896;SDS011;5501;51.176;6.470;2024-01-16T15:04:36;5.07;;;2.58;;
10896;SDS011;5501;51.176;6.470;2024-01-16T15:09:39;3.35;;;1.92;;
10896;SDS011;5501;51.176;6.470;2024-01-16T15:14:41;12.82;;;3.78;;
10896;SDS011;5501;51.176;6.470;2024-01-16T15:19:43;4.43;;;2.22;;
10896;SDS011;5501;51.176;6.470;2024-01-16T15:24:44;3.75;;;2.20;;
10896;SDS011;5501;51.176;6.470;2024-01-16T15:29:47;4.57;;;2.38;;
10896;SDS011;5501;51.176;6.470;2024-01-16T15:34:49;8.38;;;2.45;;
10896;SDS011;5501;51.176;6.470;2024-01-16T15:39:51;8.05;;;2.58;;
10896;SDS011;5501;51.176;6.470;2024-01-16T15:44:53;4.60;;;2.10;;
10896;SDS011;5501;51.176;6.470;2024-01-16T15:49:55;3.70;;;1.52;;
10896;SDS011;5501;51.176;6.470;2024-01-16T15:54:57;6.85;;;2.30;;
10896;SDS011;5501;51.176;6.470;2024-01-16T15:59:58;5.60;;;2.75;;
10896;SDS011;5501;51.176;6.470;2024-01-16T16:05:02;3.97;;;2.22;;
10896;SDS011;5501;51.176;6.470;2024-01-16T16:10:04;7.80;;;2.33;;
10896;SDS011;5501;51.176;6.470;2024-01-16T16:15:06;3.15;;;2.10;;
10896;SDS011;5501;51.176;6.470;2024-01-16T16:20:08;4.32;;;2.42;;
10896;SDS011;5501;51.176;6.470;2024-01-16T16:25:11;3.08;;;2.22;;
10896;SDS011;5501;51.176;6.470;2024-01-16T16:30:12;8.55;;;2.10;;
10896;SDS011;5501;51.176;6.470;2024-01-16T16:35:15;5.63;;;3.45;;
10896;SDS011;5501;51.176;6.470;2024-01-16T16:40:17;5.35;;;2.60;;
10896;SDS011;5501;51.176;6.470;2024-01-16T16:45:18;11.63;;;2.47;;
10896;SDS011;5501;51.176;6.470;2024-01-16T16:50:20;4.70;;;1.85;;
10896;SDS011;5501;51.176;6.470;2024-01-16T16:55:21;4.22;;;2.58;;
10896;SDS011;5501;51.176;6.470;2024-01-16T17:00:23;9.15;;;2.67;;
10896;SDS011;5501;51.176;6.470;2024-01-16T17:05:24;9.50;;;4.30;;
10896;SDS011;5501;51.176;6.470;2024-01-16T17:10:26;4.13;;;2.63;;
10896;SDS011;5501;51.176;6.470;2024-01-16T17:15:28;7.18;;;3.22;;
10896;SDS011;5501;51.176;6.470;2024-01-16T17:20:31;4.10;;;2.63;;
10896;SDS011;5501;51.176;6.470;2024-01-16T17:25:33;4.22;;;2.80;;
10896;SDS011;5501;51.176;6.470;2024-01-16T17:30:35;4.35;;;2.95;;
10896;SDS011;5501;51.176;6.470;2024-01-16T17:35:36;4.53;;;2.78;;
10896;SDS011;5501;51.176;6.470;2024-01-16T17:40:39;5.97;;;3.53;;
10896;SDS011;5501;51.176;6.470;2024-01-16T17:45:41;4.45;;;3.13;;
10896;SDS011;5501;51.176;6.470;2024-01-16T17:50:44;3.97;;;2.67;;
10896;SDS011;5501;51.176;6.470;2024-01-16T17:55:50;7.75;;;3.05;;
10896;SDS011;5501;51.176;6.470;2024-01-16T18:00:51;10.65;;;4.43;;
10896;SDS011;5501;51.176;6.470;2024-01-16T18:05:54;7.72;;;3.83;;
10896;SDS011;5501;51.176;6.470;2024-01-16T18:10:56;5.05;;;3.78;;
10896;SDS011;5501;51.176;6.470;2024-01-16T18:16:00;6.07;;;4.03;;
10896;SDS011;5501;51.176;6.470;2024-01-16T18:21:07;7.07;;;4.47;;
10896;SDS011;5501;51.176;6.470;2024-01-16T18:26:11;7.63;;;5.00;;
10896;SDS011;5501;51.176;6.470;2024-01-16T18:31:13;5.97;;;3.83;;
10896;SDS011;5501;51.176;6.470;2024-01-16T18:36:15;6.75;;;3.92;;
10896;SDS011;5501;51.176;6.470;2024-01-16T18:41:17;6.13;;;3.58;;
10896;SDS011;5501;51.176;6.470;2024-01-16T18:46:18;11.20;;;5.57;;
10896;SDS011;5501;51.176;6.470;2024-01-16T18:51:22;7.30;;;4.40;;
10896;SDS011;5501;51.176;6.470;2024-01-16T18:56:25;10.30;;;4.93;;
10896;SDS011;5501;51.176;6.470;2024-01-16T19:01:27;7.18;;;3.92;;
10896;SDS011;5501;51.176;6.470;2024-01-16T19:06:30;6.25;;;3.63;;
10896;SDS011;5501;51.176;6.470;2024-01-16T19:11:32;6.35;;;4.80;;
10896;SDS011;5501;51.176;6.470;2024-01-16T19:16:35;4.95;;;3.25;;
10896;SDS011;5501;51.176;6.470;2024-01-16T19:21:37;9.68;;;3.90;;
10896;SDS011;5501;51.176;6.470;2024-01-16T19:26:38;6.45;;;3.83;;
10896;SDS011;5501;51.176;6.470;2024-01-16T19:31:43;5.32;;;3.22;;
10896;SDS011;5501;51.176;6.470;2024-01-16T19:36:48;6.00;;;3.38;;
10896;SDS011;5501;51.176;6.470;2024-01-16T19:41:51;12.77;;;6.05;;
10896;SDS011;5501;51.176;6.470;2024-01-16T19:46:53;5.55;;;3.58;;
10896;SDS011;5501;51.176;6.470;2024-01-16T19:51:54;9.48;;;3.30;;
10896;SDS011;5501;51.176;6.470;2024-01-16T19:56:56;7.38;;;3.60;;
10896;SDS011;5501;51.176;6.470;2024-01-16T20:01:57;7.95;;;3.28;;
10896;SDS011;5501;51.176;6.470;2024-01-16T20:06:59;7.40;;;3.78;;
10896;SDS011;5501;51.176;6.470;2024-01-16T20:12:01;5.63;;;3.97;;
10896;SDS011;5501;51.176;6.470;2024-01-16T20:17:03;11.00;;;3.13;;
10896;SDS011;5501;51.176;6.470;2024-01-16T20:22:07;10.65;;;3.97;;
10896;SDS011;5501;51.176;6.470;2024-01-16T20:27:08;10.75;;;3.63;;
10896;SDS011;5501;51.176;6.470;2024-01-16T20:32:10;5.50;;;3.25;;
10896;SDS011;5501;51.176;6.470;2024-01-16T20:37:12;5.93;;;4.18;;
10896;SDS011;5501;51.176;6.470;2024-01-16T20:42:16;7.18;;;3.83;;
10896;SDS011;5501;51.176;6.470;2024-01-16T20:47:17;2.63;;;2.30;;
10896;SDS011;5501;51.176;6.470;2024-01-16T20:52:19;9.00;;;3.40;;
10896;SDS011;5501;51.176;6.470;2024-01-16T20:57:22;9.82;;;4.45;;
10896;SDS011;5501;51.176;6.470;2024-01-16T21:02:24;10.60;;;3.75;;
10896;SDS011;5501;51.176;6.470;2024-01-16T21:07:26;11.82;;;3.92;;
10896;SDS011;5501;51.176;6.470;2024-01-16T21:12:28;4.10;;;2.90;;
10896;SDS011;5501;51.176;6.470;2024-01-16T21:17:29;8.93;;;2.97;;
10896;SDS011;5501;51.176;6.470;2024-01-16T21:22:31;7.47;;;4.25;;
10896;SDS011;5501;51.176;6.470;2024-01-16T21:27:37;13.43;;;4.82;;
10896;SDS011;5501;51.176;6.470;2024-01-16T21:32:38;7.28;;;2.75;;
10896;SDS011;5501;51.176;6.470;2024-01-16T21:37:40;20.48;;;4.40;;
10896;SDS011;5501;51.176;6.470;2024-01-16T21:42:42;11.00;;;2.47;;
10896;SDS011;5501;51.176;6.470;2024-01-16T21:47:43;3.15;;;2.83;;
10896;SDS011;5501;51.176;6.470;2024-01-16T21:52:47;5.10;;;2.97;;
10896;SDS011;5501;51.176;6.470;2024-01-16T21:57:49;4.95;;;3.33;;
10896;SDS011;5501;51.176;6.470;2024-01-16T22:02:50;10.75;;;3.05;;
10896;SDS011;5501;51.176;6.470;2024-01-16T22:07:58;4.60;;;3.37;;
10896;SDS011;5501;51.176;6.470;2024-01-16T22:13:02;4.68;;;2.60;;
10896;SDS011;5501;51.176;6.470;2024-01-16T22:18:04;3.65;;;2.45;;
10896;SDS011;5501;51.176;6.470;2024-01-16T22:23:06;3.88;;;2.22;;
10896;SDS011;5501;51.176;6.470;2024-01-16T22:28:07;8.98;;;2.85;;
10896;SDS011;5501;51.176;6.470;2024-01-16T22:33:10;6.93;;;2.58;;
10896;SDS011;5501;51.176;6.470;2024-01-16T22:38:13;10.43;;;3.33;;
10896;SDS011;5501;51.176;6.470;2024-01-16T22:43:15;5.68;;;3.92;;
10896;SDS011;5501;51.176;6.470;2024-01-16T22:48:16;7.43;;;4.03;;
10896;SDS011;5501;51.176;6.470;2024-01-16T22:53:18;8.15;;;3.42;;
10896;SDS011;5501;51.176;6.470;2024-01-16T22:58:20;3.90;;;3.10;;
10896;SDS011;5501;51.176;6.470;2024-01-16T23:03:22;5.30;;;3.33;;
10896;SDS011;5501;51.176;6.470;2024-01-16T23:08:23;9.05;;;3.15;;
10896;SDS011;5501;51.176;6.470;2024-01-16T23:13:25;6.38;;;3.20;;
10896;SDS011;5501;51.176;6.470;2024-01-16T23:18:26;3.25;;;2.45;;
10896;SDS011;5501;51.176;6.470;2024-01-16T23:23:29;10.20;;;3.53;;
10896;SDS011;5501;51.176;6.470;2024-01-16T23:28:30;3.33;;;2.67;;
10896;SDS011;5501;51.176;6.470;2024-01-16T23:33:32;6.07;;;2.88;;
10896;SDS011;5501;51.176;6.470;2024-01-16T23:38:35;12.90;;;5.82;;
10896;SDS011;5501;51.176;6.470;2024-01-16T23:43:39;7.05;;;4.05;;
10896;SDS011;5501;51.176;6.470;2024-01-16T23:48:43;6.05;;;3.90;;
10896;SDS011;5501;51.176;6.470;2024-01-16T23:53:45;7.15;;;3.38;;
10896;SDS011;5501;51.176;6.470;2024-01-16T23:58:47;7.88;;;3.17;;
